sensor_id;sensor_type;location;lat;lon;timestamp;P1;durP1;ratioP1;P2;durP2;ratioP2
19739;SDS011;10027;51.066;13.768;2023-11-21T00:01:21;2.23;;;1.30;;
19739;SDS011;10027;51.066;13.768;2023-11-21T00:03:49;3.57;;;1.20;;
19739;SDS011;10027;51.066;13.768;2023-11-21T00:06:16;2.80;;;1.40;;
19739;SDS011;10027;51.066;13.768;2023-11-21T00:08:44;1.80;;;1.10;;
19739;SDS011;10027;51.066;13.768;2023-11-21T00:11:11;1.47;;;1.27;;
19739;SDS011;10027;51.066;13.768;2023-11-21T00:13:38;1.57;;;1.27;;
19739;SDS011;10027;51.066;13.768;2023-11-21T00:16:06;1.67;;;1.20;;
19739;SDS011;10027;51.066;13.768;2023-11-21T00:18:34;2.37;;;1.20;;
19739;SDS011;10027;51.066;13.768;2023-11-21T00:21:02;1.30;;;1.13;;
19739;SDS011;10027;51.066;13.768;2023-11-21T00:23:29;3.07;;;1.40;;
19739;SDS011;10027;51.066;13.768;2023-11-21T00:25:56;1.60;;;1.20;;
19739;SDS011;10027;51.066;13.768;2023-11-21T00:28:24;2.70;;;1.17;;
19739;SDS011;10027;51.066;13.768;2023-11-21T00:30:51;1.20;;;0.97;;
19739;SDS011;10027;51.066;13.768;2023-11-21T00:33:20;2.80;;;1.33;;
19739;SDS011;10027;51.066;13.768;2023-11-21T00:35:47;3.83;;;1.60;;
19739;SDS011;10027;51.066;13.768;2023-11-21T00:38:14;1.93;;;1.20;;
19739;SDS011;10027;51.066;13.768;2023-11-21T00:40:41;1.50;;;1.20;;
19739;SDS011;10027;51.066;13.768;2023-11-21T00:43:08;1.43;;;1.20;;
19739;SDS011;10027;51.066;13.768;2023-11-21T00:45:35;1.50;;;1.10;;
19739;SDS011;10027;51.066;13.768;2023-11-21T00:48:03;1.60;;;1.20;;
19739;SDS011;10027;51.066;13.768;2023-11-21T00:50:31;1.70;;;1.03;;
19739;SDS011;10027;51.066;13.768;2023-11-21T00:52:58;1.10;;;0.87;;
19739;SDS011;10027;51.066;13.768;2023-11-21T00:55:25;2.70;;;1.40;;
19739;SDS011;10027;51.066;13.768;2023-11-21T00:57:54;1.67;;;1.30;;
19739;SDS011;10027;51.066;13.768;2023-11-21T01:00:21;2.30;;;1.17;;
19739;SDS011;10027;51.066;13.768;2023-11-21T01:02:49;2.10;;;1.50;;
19739;SDS011;10027;51.066;13.768;2023-11-21T01:05:17;2.10;;;1.20;;
19739;SDS011;10027;51.066;13.768;2023-11-21T01:07:44;1.67;;;1.10;;
19739;SDS011;10027;51.066;13.768;2023-11-21T01:10:11;2.23;;;1.13;;
19739;SDS011;10027;51.066;13.768;2023-11-21T01:12:38;2.37;;;1.10;;
19739;SDS011;10027;51.066;13.768;2023-11-21T01:15:06;1.43;;;1.10;;
19739;SDS011;10027;51.066;13.768;2023-11-21T01:17:33;2.77;;;1.20;;
19739;SDS011;10027;51.066;13.768;2023-11-21T01:20:01;2.37;;;1.37;;
19739;SDS011;10027;51.066;13.768;2023-11-21T01:22:32;1.80;;;1.10;;
19739;SDS011;10027;51.066;13.768;2023-11-21T01:25:00;1.63;;;1.13;;
19739;SDS011;10027;51.066;13.768;2023-11-21T01:27:27;2.57;;;1.30;;
19739;SDS011;10027;51.066;13.768;2023-11-21T01:29:54;2.43;;;1.20;;
19739;SDS011;10027;51.066;13.768;2023-11-21T01:32:21;4.87;;;1.57;;
19739;SDS011;10027;51.066;13.768;2023-11-21T01:37:15;1.30;;;1.20;;
19739;SDS011;10027;51.066;13.768;2023-11-21T01:39:43;1.57;;;1.17;;
19739;SDS011;10027;51.066;13.768;2023-11-21T01:42:11;2.90;;;1.50;;
19739;SDS011;10027;51.066;13.768;2023-11-21T01:44:39;2.20;;;1.40;;
19739;SDS011;10027;51.066;13.768;2023-11-21T01:47:07;2.57;;;1.53;;
19739;SDS011;10027;51.066;13.768;2023-11-21T01:49:35;1.77;;;1.27;;
19739;SDS011;10027;51.066;13.768;2023-11-21T01:52:03;2.43;;;1.27;;
19739;SDS011;10027;51.066;13.768;2023-11-21T01:54:30;2.53;;;1.30;;
19739;SDS011;10027;51.066;13.768;2023-11-21T01:57:01;2.97;;;1.30;;
19739;SDS011;10027;51.066;13.768;2023-11-21T01:59:31;3.13;;;1.20;;
19739;SDS011;10027;51.066;13.768;2023-11-21T02:02:00;2.90;;;1.30;;
19739;SDS011;10027;51.066;13.768;2023-11-21T02:04:28;2.90;;;1.40;;
19739;SDS011;10027;51.066;13.768;2023-11-21T02:06:55;1.87;;;1.30;;
19739;SDS011;10027;51.066;13.768;2023-11-21T02:09:25;3.13;;;1.60;;
19739;SDS011;10027;51.066;13.768;2023-11-21T02:11:53;2.23;;;1.40;;
19739;SDS011;10027;51.066;13.768;2023-11-21T02:14:24;1.77;;;1.23;;
19739;SDS011;10027;51.066;13.768;2023-11-21T02:16:53;3.63;;;1.10;;
19739;SDS011;10027;51.066;13.768;2023-11-21T02:19:21;1.97;;;1.20;;
19739;SDS011;10027;51.066;13.768;2023-11-21T02:21:52;1.50;;;1.20;;
19739;SDS011;10027;51.066;13.768;2023-11-21T02:24:20;2.13;;;1.40;;
19739;SDS011;10027;51.066;13.768;2023-11-21T02:26:48;3.93;;;1.40;;
19739;SDS011;10027;51.066;13.768;2023-11-21T02:29:18;2.17;;;1.33;;
19739;SDS011;10027;51.066;13.768;2023-11-21T02:31:50;3.03;;;1.20;;
19739;SDS011;10027;51.066;13.768;2023-11-21T02:34:18;3.37;;;1.23;;
19739;SDS011;10027;51.066;13.768;2023-11-21T02:36:45;2.20;;;1.20;;
19739;SDS011;10027;51.066;13.768;2023-11-21T02:39:13;3.53;;;1.57;;
19739;SDS011;10027;51.066;13.768;2023-11-21T02:41:40;2.63;;;1.40;;
19739;SDS011;10027;51.066;13.768;2023-11-21T02:44:07;2.47;;;1.30;;
19739;SDS011;10027;51.066;13.768;2023-11-21T02:46:36;2.17;;;1.10;;
19739;SDS011;10027;51.066;13.768;2023-11-21T02:49:03;3.07;;;1.60;;
19739;SDS011;10027;51.066;13.768;2023-11-21T02:51:32;4.47;;;1.60;;
19739;SDS011;10027;51.066;13.768;2023-11-21T02:54:00;2.70;;;1.40;;
19739;SDS011;10027;51.066;13.768;2023-11-21T02:56:29;3.10;;;1.60;;
19739;SDS011;10027;51.066;13.768;2023-11-21T02:58:57;8.23;;;2.10;;
19739;SDS011;10027;51.066;13.768;2023-11-21T03:01:24;4.23;;;1.80;;
19739;SDS011;10027;51.066;13.768;2023-11-21T03:03:51;4.00;;;2.00;;
19739;SDS011;10027;51.066;13.768;2023-11-21T03:06:19;4.73;;;2.73;;
19739;SDS011;10027;51.066;13.768;2023-11-21T03:08:46;4.40;;;2.30;;
19739;SDS011;10027;51.066;13.768;2023-11-21T03:11:14;4.80;;;2.60;;
19739;SDS011;10027;51.066;13.768;2023-11-21T03:13:41;3.60;;;1.73;;
19739;SDS011;10027;51.066;13.768;2023-11-21T03:16:08;3.57;;;1.50;;
19739;SDS011;10027;51.066;13.768;2023-11-21T03:18:37;2.80;;;1.80;;
19739;SDS011;10027;51.066;13.768;2023-11-21T03:21:05;3.90;;;1.37;;
19739;SDS011;10027;51.066;13.768;2023-11-21T03:23:35;2.93;;;1.10;;
19739;SDS011;10027;51.066;13.768;2023-11-21T03:26:02;2.93;;;1.37;;
19739;SDS011;10027;51.066;13.768;2023-11-21T03:28:29;1.30;;;1.10;;
19739;SDS011;10027;51.066;13.768;2023-11-21T03:30:57;2.67;;;1.30;;
19739;SDS011;10027;51.066;13.768;2023-11-21T03:33:24;2.27;;;1.30;;
19739;SDS011;10027;51.066;13.768;2023-11-21T03:35:51;4.37;;;1.30;;
19739;SDS011;10027;51.066;13.768;2023-11-21T03:38:19;1.37;;;1.10;;
19739;SDS011;10027;51.066;13.768;2023-11-21T03:40:46;2.07;;;1.27;;
19739;SDS011;10027;51.066;13.768;2023-11-21T03:43:13;4.57;;;1.63;;
19739;SDS011;10027;51.066;13.768;2023-11-21T03:45:41;1.63;;;1.10;;
19739;SDS011;10027;51.066;13.768;2023-11-21T03:48:08;1.80;;;1.07;;
19739;SDS011;10027;51.066;13.768;2023-11-21T03:50:35;3.17;;;1.40;;
19739;SDS011;10027;51.066;13.768;2023-11-21T03:53:02;3.33;;;1.20;;
19739;SDS011;10027;51.066;13.768;2023-11-21T03:55:30;2.47;;;1.23;;
19739;SDS011;10027;51.066;13.768;2023-11-21T03:57:58;3.40;;;1.40;;
19739;SDS011;10027;51.066;13.768;2023-11-21T04:00:25;2.83;;;1.20;;
19739;SDS011;10027;51.066;13.768;2023-11-21T04:02:55;2.77;;;1.10;;
19739;SDS011;10027;51.066;13.768;2023-11-21T04:05:23;1.90;;;1.30;;
19739;SDS011;10027;51.066;13.768;2023-11-21T04:07:50;2.73;;;1.27;;
19739;SDS011;10027;51.066;13.768;2023-11-21T04:10:17;7.83;;;1.37;;
19739;SDS011;10027;51.066;13.768;2023-11-21T04:12:45;1.50;;;1.10;;
19739;SDS011;10027;51.066;13.768;2023-11-21T04:15:12;2.73;;;1.10;;
19739;SDS011;10027;51.066;13.768;2023-11-21T04:17:41;3.03;;;1.43;;
19739;SDS011;10027;51.066;13.768;2023-11-21T04:20:08;2.63;;;1.20;;
19739;SDS011;10027;51.066;13.768;2023-11-21T04:22:37;2.13;;;1.43;;
19739;SDS011;10027;51.066;13.768;2023-11-21T04:25:10;3.57;;;1.67;;
19739;SDS011;10027;51.066;13.768;2023-11-21T04:27:41;3.43;;;1.57;;
19739;SDS011;10027;51.066;13.768;2023-11-21T04:30:10;5.23;;;1.33;;
19739;SDS011;10027;51.066;13.768;2023-11-21T04:32:37;2.73;;;1.13;;
19739;SDS011;10027;51.066;13.768;2023-11-21T04:35:08;3.33;;;1.57;;
19739;SDS011;10027;51.066;13.768;2023-11-21T04:37:35;4.77;;;1.90;;
19739;SDS011;10027;51.066;13.768;2023-11-21T04:40:03;4.23;;;1.80;;
19739;SDS011;10027;51.066;13.768;2023-11-21T04:42:34;3.57;;;1.57;;
19739;SDS011;10027;51.066;13.768;2023-11-21T04:45:02;3.40;;;1.50;;
19739;SDS011;10027;51.066;13.768;2023-11-21T04:47:35;3.93;;;1.70;;
19739;SDS011;10027;51.066;13.768;2023-11-21T04:50:03;3.60;;;1.50;;
19739;SDS011;10027;51.066;13.768;2023-11-21T04:52:32;5.03;;;1.80;;
19739;SDS011;10027;51.066;13.768;2023-11-21T04:55:02;2.07;;;1.50;;
19739;SDS011;10027;51.066;13.768;2023-11-21T04:57:29;3.10;;;1.63;;
19739;SDS011;10027;51.066;13.768;2023-11-21T04:59:57;3.90;;;1.93;;
19739;SDS011;10027;51.066;13.768;2023-11-21T05:02:24;4.30;;;2.20;;
19739;SDS011;10027;51.066;13.768;2023-11-21T05:05:01;3.33;;;2.10;;
19739;SDS011;10027;51.066;13.768;2023-11-21T05:07:28;7.80;;;2.10;;
19739;SDS011;10027;51.066;13.768;2023-11-21T05:09:58;3.70;;;2.00;;
19739;SDS011;10027;51.066;13.768;2023-11-21T05:12:25;3.87;;;2.20;;
19739;SDS011;10027;51.066;13.768;2023-11-21T05:14:52;4.47;;;2.50;;
19739;SDS011;10027;51.066;13.768;2023-11-21T05:17:20;5.23;;;2.80;;
19739;SDS011;10027;51.066;13.768;2023-11-21T05:19:48;6.53;;;3.00;;
19739;SDS011;10027;51.066;13.768;2023-11-21T05:22:15;7.27;;;3.27;;
19739;SDS011;10027;51.066;13.768;2023-11-21T05:24:43;8.73;;;4.20;;
19739;SDS011;10027;51.066;13.768;2023-11-21T05:27:10;12.90;;;5.70;;
19739;SDS011;10027;51.066;13.768;2023-11-21T05:29:37;7.00;;;3.60;;
19739;SDS011;10027;51.066;13.768;2023-11-21T05:32:04;12.30;;;4.60;;
19739;SDS011;10027;51.066;13.768;2023-11-21T05:34:31;17.10;;;7.87;;
19739;SDS011;10027;51.066;13.768;2023-11-21T05:36:59;7.63;;;3.97;;
19739;SDS011;10027;51.066;13.768;2023-11-21T05:39:26;6.30;;;3.20;;
19739;SDS011;10027;51.066;13.768;2023-11-21T05:41:54;6.00;;;3.77;;
19739;SDS011;10027;51.066;13.768;2023-11-21T05:44:21;5.17;;;3.20;;
19739;SDS011;10027;51.066;13.768;2023-11-21T05:46:49;3.50;;;2.40;;
19739;SDS011;10027;51.066;13.768;2023-11-21T05:49:17;3.80;;;2.40;;
19739;SDS011;10027;51.066;13.768;2023-11-21T05:51:47;3.60;;;2.50;;
19739;SDS011;10027;51.066;13.768;2023-11-21T05:54:14;4.37;;;2.33;;
19739;SDS011;10027;51.066;13.768;2023-11-21T05:56:42;4.50;;;2.80;;
19739;SDS011;10027;51.066;13.768;2023-11-21T05:59:10;7.30;;;3.03;;
19739;SDS011;10027;51.066;13.768;2023-11-21T06:01:37;4.73;;;3.07;;
19739;SDS011;10027;51.066;13.768;2023-11-21T06:04:05;4.63;;;2.97;;
19739;SDS011;10027;51.066;13.768;2023-11-21T06:06:34;4.73;;;3.47;;
19739;SDS011;10027;51.066;13.768;2023-11-21T06:09:02;4.47;;;2.90;;
19739;SDS011;10027;51.066;13.768;2023-11-21T06:11:29;4.53;;;2.87;;
19739;SDS011;10027;51.066;13.768;2023-11-21T06:13:56;5.90;;;2.90;;
19739;SDS011;10027;51.066;13.768;2023-11-21T06:16:24;5.10;;;2.40;;
19739;SDS011;10027;51.066;13.768;2023-11-21T06:18:51;6.77;;;2.90;;
19739;SDS011;10027;51.066;13.768;2023-11-21T06:21:18;5.07;;;2.90;;
19739;SDS011;10027;51.066;13.768;2023-11-21T06:23:45;6.67;;;3.23;;
19739;SDS011;10027;51.066;13.768;2023-11-21T06:26:15;9.17;;;3.50;;
19739;SDS011;10027;51.066;13.768;2023-11-21T06:28:42;8.23;;;3.27;;
19739;SDS011;10027;51.066;13.768;2023-11-21T06:31:09;10.27;;;3.43;;
19739;SDS011;10027;51.066;13.768;2023-11-21T06:33:36;6.40;;;3.77;;
19739;SDS011;10027;51.066;13.768;2023-11-21T06:36:04;8.17;;;3.87;;
19739;SDS011;10027;51.066;13.768;2023-11-21T06:38:32;6.50;;;3.40;;
19739;SDS011;10027;51.066;13.768;2023-11-21T06:41:00;6.47;;;3.30;;
19739;SDS011;10027;51.066;13.768;2023-11-21T06:43:30;7.43;;;3.60;;
19739;SDS011;10027;51.066;13.768;2023-11-21T06:45:57;6.93;;;3.43;;
19739;SDS011;10027;51.066;13.768;2023-11-21T06:48:25;6.80;;;3.60;;
19739;SDS011;10027;51.066;13.768;2023-11-21T06:50:52;7.60;;;4.30;;
19739;SDS011;10027;51.066;13.768;2023-11-21T06:53:19;7.63;;;3.83;;
19739;SDS011;10027;51.066;13.768;2023-11-21T06:55:46;6.50;;;3.83;;
19739;SDS011;10027;51.066;13.768;2023-11-21T06:58:13;8.20;;;3.60;;
19739;SDS011;10027;51.066;13.768;2023-11-21T07:00:41;7.63;;;3.50;;
19739;SDS011;10027;51.066;13.768;2023-11-21T07:03:12;7.87;;;3.40;;
19739;SDS011;10027;51.066;13.768;2023-11-21T07:05:40;6.77;;;3.17;;
19739;SDS011;10027;51.066;13.768;2023-11-21T07:08:07;7.63;;;3.37;;
19739;SDS011;10027;51.066;13.768;2023-11-21T07:10:35;6.33;;;3.80;;
19739;SDS011;10027;51.066;13.768;2023-11-21T07:13:03;4.80;;;3.40;;
19739;SDS011;10027;51.066;13.768;2023-11-21T07:15:30;8.57;;;3.70;;
19739;SDS011;10027;51.066;13.768;2023-11-21T07:17:57;7.30;;;3.40;;
19739;SDS011;10027;51.066;13.768;2023-11-21T07:20:24;5.80;;;3.27;;
19739;SDS011;10027;51.066;13.768;2023-11-21T07:22:51;7.30;;;3.77;;
19739;SDS011;10027;51.066;13.768;2023-11-21T07:25:19;6.90;;;3.50;;
19739;SDS011;10027;51.066;13.768;2023-11-21T07:27:46;5.83;;;3.40;;
19739;SDS011;10027;51.066;13.768;2023-11-21T07:30:13;8.23;;;3.63;;
19739;SDS011;10027;51.066;13.768;2023-11-21T07:32:40;5.73;;;3.80;;
19739;SDS011;10027;51.066;13.768;2023-11-21T07:35:08;5.73;;;3.17;;
19739;SDS011;10027;51.066;13.768;2023-11-21T07:37:35;6.70;;;3.40;;
19739;SDS011;10027;51.066;13.768;2023-11-21T07:40:02;7.83;;;3.60;;
19739;SDS011;10027;51.066;13.768;2023-11-21T07:42:30;8.60;;;3.93;;
19739;SDS011;10027;51.066;13.768;2023-11-21T07:44:57;5.70;;;3.80;;
19739;SDS011;10027;51.066;13.768;2023-11-21T07:47:24;5.47;;;3.27;;
19739;SDS011;10027;51.066;13.768;2023-11-21T07:49:53;8.63;;;4.37;;
19739;SDS011;10027;51.066;13.768;2023-11-21T07:52:22;7.07;;;3.40;;
19739;SDS011;10027;51.066;13.768;2023-11-21T07:54:50;7.60;;;3.50;;
19739;SDS011;10027;51.066;13.768;2023-11-21T07:57:17;6.30;;;3.57;;
19739;SDS011;10027;51.066;13.768;2023-11-21T07:59:44;10.70;;;4.00;;
19739;SDS011;10027;51.066;13.768;2023-11-21T08:02:11;8.37;;;3.70;;
19739;SDS011;10027;51.066;13.768;2023-11-21T08:04:38;8.80;;;3.53;;
19739;SDS011;10027;51.066;13.768;2023-11-21T08:07:06;7.70;;;3.80;;
19739;SDS011;10027;51.066;13.768;2023-11-21T08:09:33;8.47;;;3.60;;
19739;SDS011;10027;51.066;13.768;2023-11-21T08:12:00;8.63;;;3.77;;
19739;SDS011;10027;51.066;13.768;2023-11-21T08:14:28;8.20;;;4.10;;
19739;SDS011;10027;51.066;13.768;2023-11-21T08:16:56;7.53;;;4.03;;
19739;SDS011;10027;51.066;13.768;2023-11-21T08:19:24;9.23;;;4.33;;
19739;SDS011;10027;51.066;13.768;2023-11-21T08:21:52;10.50;;;4.50;;
19739;SDS011;10027;51.066;13.768;2023-11-21T08:24:21;11.40;;;5.10;;
19739;SDS011;10027;51.066;13.768;2023-11-21T08:26:48;8.70;;;4.20;;
19739;SDS011;10027;51.066;13.768;2023-11-21T08:29:16;9.37;;;4.30;;
19739;SDS011;10027;51.066;13.768;2023-11-21T08:31:43;10.70;;;5.00;;
19739;SDS011;10027;51.066;13.768;2023-11-21T08:34:13;12.37;;;5.10;;
19739;SDS011;10027;51.066;13.768;2023-11-21T08:36:42;14.07;;;4.80;;
19739;SDS011;10027;51.066;13.768;2023-11-21T08:39:09;7.77;;;4.33;;
19739;SDS011;10027;51.066;13.768;2023-11-21T08:41:36;9.37;;;4.73;;
19739;SDS011;10027;51.066;13.768;2023-11-21T08:44:04;13.30;;;4.97;;
19739;SDS011;10027;51.066;13.768;2023-11-21T08:46:34;11.83;;;5.13;;
19739;SDS011;10027;51.066;13.768;2023-11-21T08:49:04;10.50;;;5.00;;
19739;SDS011;10027;51.066;13.768;2023-11-21T08:51:32;9.60;;;5.13;;
19739;SDS011;10027;51.066;13.768;2023-11-21T08:53:59;11.03;;;4.70;;
19739;SDS011;10027;51.066;13.768;2023-11-21T08:56:30;9.50;;;4.40;;
19739;SDS011;10027;51.066;13.768;2023-11-21T08:58:57;10.23;;;4.53;;
19739;SDS011;10027;51.066;13.768;2023-11-21T09:01:26;8.40;;;4.40;;
19739;SDS011;10027;51.066;13.768;2023-11-21T09:03:53;13.77;;;4.93;;
19739;SDS011;10027;51.066;13.768;2023-11-21T09:06:21;11.63;;;4.93;;
19739;SDS011;10027;51.066;13.768;2023-11-21T09:08:48;13.57;;;4.70;;
19739;SDS011;10027;51.066;13.768;2023-11-21T09:11:15;7.97;;;4.53;;
19739;SDS011;10027;51.066;13.768;2023-11-21T09:13:45;9.17;;;4.33;;
19739;SDS011;10027;51.066;13.768;2023-11-21T09:16:13;7.10;;;4.20;;
19739;SDS011;10027;51.066;13.768;2023-11-21T09:18:42;10.47;;;4.27;;
19739;SDS011;10027;51.066;13.768;2023-11-21T09:21:09;9.30;;;4.43;;
19739;SDS011;10027;51.066;13.768;2023-11-21T09:23:36;8.30;;;4.23;;
19739;SDS011;10027;51.066;13.768;2023-11-21T09:26:04;6.23;;;3.90;;
19739;SDS011;10027;51.066;13.768;2023-11-21T09:28:31;7.17;;;4.10;;
19739;SDS011;10027;51.066;13.768;2023-11-21T09:30:58;9.23;;;4.70;;
19739;SDS011;10027;51.066;13.768;2023-11-21T09:33:28;12.57;;;4.10;;
19739;SDS011;10027;51.066;13.768;2023-11-21T09:35:56;6.53;;;4.30;;
19739;SDS011;10027;51.066;13.768;2023-11-21T09:38:24;6.53;;;4.20;;
19739;SDS011;10027;51.066;13.768;2023-11-21T09:40:51;6.77;;;4.30;;
19739;SDS011;10027;51.066;13.768;2023-11-21T09:43:20;4.43;;;3.40;;
19739;SDS011;10027;51.066;13.768;2023-11-21T09:45:52;4.93;;;3.07;;
19739;SDS011;10027;51.066;13.768;2023-11-21T09:48:21;3.33;;;2.37;;
19739;SDS011;10027;51.066;13.768;2023-11-21T09:50:48;2.90;;;1.93;;
19739;SDS011;10027;51.066;13.768;2023-11-21T09:53:20;2.00;;;1.77;;
19739;SDS011;10027;51.066;13.768;2023-11-21T09:55:49;1.97;;;1.50;;
19739;SDS011;10027;51.066;13.768;2023-11-21T09:58:17;2.43;;;1.80;;
19739;SDS011;10027;51.066;13.768;2023-11-21T10:00:46;2.27;;;1.80;;
19739;SDS011;10027;51.066;13.768;2023-11-21T10:03:13;3.47;;;2.20;;
19739;SDS011;10027;51.066;13.768;2023-11-21T10:05:44;3.60;;;2.90;;
19739;SDS011;10027;51.066;13.768;2023-11-21T10:08:16;5.03;;;3.57;;
19739;SDS011;10027;51.066;13.768;2023-11-21T10:10:43;4.40;;;3.90;;
19739;SDS011;10027;51.066;13.768;2023-11-21T10:13:12;5.33;;;4.17;;
19739;SDS011;10027;51.066;13.768;2023-11-21T10:15:43;6.37;;;4.47;;
19739;SDS011;10027;51.066;13.768;2023-11-21T10:18:15;7.07;;;4.87;;
19739;SDS011;10027;51.066;13.768;2023-11-21T10:20:42;6.47;;;4.20;;
19739;SDS011;10027;51.066;13.768;2023-11-21T10:23:12;6.87;;;3.60;;
19739;SDS011;10027;51.066;13.768;2023-11-21T10:25:41;5.83;;;3.20;;
19739;SDS011;10027;51.066;13.768;2023-11-21T10:28:09;5.07;;;3.37;;
19739;SDS011;10027;51.066;13.768;2023-11-21T10:30:37;4.13;;;3.10;;
19739;SDS011;10027;51.066;13.768;2023-11-21T10:33:04;3.97;;;2.97;;
19739;SDS011;10027;51.066;13.768;2023-11-21T10:38:08;5.53;;;3.53;;
19739;SDS011;10027;51.066;13.768;2023-11-21T10:40:42;4.83;;;3.43;;
19739;SDS011;10027;51.066;13.768;2023-11-21T10:43:11;5.87;;;3.60;;
19739;SDS011;10027;51.066;13.768;2023-11-21T10:45:39;5.30;;;3.63;;
19739;SDS011;10027;51.066;13.768;2023-11-21T10:48:07;6.17;;;3.97;;
19739;SDS011;10027;51.066;13.768;2023-11-21T10:50:35;7.13;;;4.53;;
19739;SDS011;10027;51.066;13.768;2023-11-21T10:53:05;7.17;;;4.37;;
19739;SDS011;10027;51.066;13.768;2023-11-21T10:55:32;7.80;;;4.30;;
19739;SDS011;10027;51.066;13.768;2023-11-21T10:58:01;6.03;;;4.10;;
19739;SDS011;10027;51.066;13.768;2023-11-21T11:00:31;5.67;;;3.93;;
19739;SDS011;10027;51.066;13.768;2023-11-21T11:02:59;6.00;;;3.63;;
19739;SDS011;10027;51.066;13.768;2023-11-21T11:05:27;6.33;;;3.83;;
19739;SDS011;10027;51.066;13.768;2023-11-21T11:08:05;5.47;;;3.30;;
19739;SDS011;10027;51.066;13.768;2023-11-21T11:10:35;5.33;;;3.00;;
19739;SDS011;10027;51.066;13.768;2023-11-21T11:13:02;5.17;;;2.90;;
19739;SDS011;10027;51.066;13.768;2023-11-21T11:15:31;6.20;;;3.57;;
19739;SDS011;10027;51.066;13.768;2023-11-21T11:17:58;8.60;;;4.57;;
19739;SDS011;10027;51.066;13.768;2023-11-21T11:20:27;5.90;;;3.50;;
19739;SDS011;10027;51.066;13.768;2023-11-21T11:25:45;9.87;;;3.60;;
19739;SDS011;10027;51.066;13.768;2023-11-21T11:28:20;5.50;;;3.30;;
19739;SDS011;10027;51.066;13.768;2023-11-21T11:38:23;4.87;;;3.27;;
19739;SDS011;10027;51.066;13.768;2023-11-21T11:40:52;5.80;;;3.50;;
19739;SDS011;10027;51.066;13.768;2023-11-21T11:43:24;5.30;;;3.20;;
19739;SDS011;10027;51.066;13.768;2023-11-21T11:45:52;5.23;;;3.20;;
19739;SDS011;10027;51.066;13.768;2023-11-21T11:48:21;7.30;;;3.27;;
19739;SDS011;10027;51.066;13.768;2023-11-21T11:51:02;5.27;;;3.30;;
19739;SDS011;10027;51.066;13.768;2023-11-21T11:53:35;4.90;;;2.73;;
19739;SDS011;10027;51.066;13.768;2023-11-21T11:58:49;5.40;;;3.40;;
19739;SDS011;10027;51.066;13.768;2023-11-21T12:01:18;4.60;;;2.90;;
19739;SDS011;10027;51.066;13.768;2023-11-21T12:06:35;5.37;;;3.20;;
19739;SDS011;10027;51.066;13.768;2023-11-21T12:09:02;5.10;;;3.50;;
19739;SDS011;10027;51.066;13.768;2023-11-21T12:11:32;5.13;;;3.20;;
19739;SDS011;10027;51.066;13.768;2023-11-21T12:14:01;6.23;;;3.43;;
19739;SDS011;10027;51.066;13.768;2023-11-21T12:16:32;5.93;;;3.30;;
19739;SDS011;10027;51.066;13.768;2023-11-21T12:18:59;4.50;;;3.00;;
19739;SDS011;10027;51.066;13.768;2023-11-21T12:21:27;5.83;;;3.10;;
19739;SDS011;10027;51.066;13.768;2023-11-21T12:23:54;5.43;;;3.30;;
19739;SDS011;10027;51.066;13.768;2023-11-21T12:26:23;4.17;;;2.90;;
19739;SDS011;10027;51.066;13.768;2023-11-21T12:28:54;5.63;;;3.47;;
19739;SDS011;10027;51.066;13.768;2023-11-21T12:31:24;9.83;;;3.43;;
19739;SDS011;10027;51.066;13.768;2023-11-21T12:33:53;4.90;;;3.17;;
19739;SDS011;10027;51.066;13.768;2023-11-21T12:36:21;4.90;;;3.23;;
19739;SDS011;10027;51.066;13.768;2023-11-21T12:38:48;6.80;;;3.80;;
19739;SDS011;10027;51.066;13.768;2023-11-21T12:41:16;7.00;;;4.47;;
19739;SDS011;10027;51.066;13.768;2023-11-21T12:43:43;7.97;;;4.33;;
19739;SDS011;10027;51.066;13.768;2023-11-21T12:46:11;7.10;;;3.97;;
19739;SDS011;10027;51.066;13.768;2023-11-21T12:48:42;10.30;;;4.20;;
19739;SDS011;10027;51.066;13.768;2023-11-21T12:51:10;7.17;;;3.90;;
19739;SDS011;10027;51.066;13.768;2023-11-21T12:53:38;7.53;;;3.77;;
19739;SDS011;10027;51.066;13.768;2023-11-21T12:56:11;4.90;;;3.57;;
19739;SDS011;10027;51.066;13.768;2023-11-21T12:58:39;6.60;;;3.60;;
19739;SDS011;10027;51.066;13.768;2023-11-21T13:01:08;6.57;;;3.97;;
19739;SDS011;10027;51.066;13.768;2023-11-21T13:03:38;6.73;;;3.77;;
19739;SDS011;10027;51.066;13.768;2023-11-21T13:06:07;7.73;;;4.03;;
19739;SDS011;10027;51.066;13.768;2023-11-21T13:08:34;9.03;;;4.93;;
19739;SDS011;10027;51.066;13.768;2023-11-21T13:11:01;8.30;;;4.63;;
19739;SDS011;10027;51.066;13.768;2023-11-21T13:13:29;6.57;;;4.17;;
19739;SDS011;10027;51.066;13.768;2023-11-21T13:16:01;7.97;;;4.60;;
19739;SDS011;10027;51.066;13.768;2023-11-21T13:18:32;8.07;;;4.70;;
19739;SDS011;10027;51.066;13.768;2023-11-21T13:21:01;7.70;;;4.70;;
19739;SDS011;10027;51.066;13.768;2023-11-21T13:23:34;8.33;;;4.63;;
19739;SDS011;10027;51.066;13.768;2023-11-21T13:26:02;7.47;;;3.90;;
19739;SDS011;10027;51.066;13.768;2023-11-21T13:28:33;7.30;;;4.10;;
19739;SDS011;10027;51.066;13.768;2023-11-21T13:31:01;8.20;;;4.40;;
19739;SDS011;10027;51.066;13.768;2023-11-21T13:33:48;9.50;;;3.90;;
19739;SDS011;10027;51.066;13.768;2023-11-21T13:36:23;7.57;;;4.40;;
19739;SDS011;10027;51.066;13.768;2023-11-21T13:38:50;9.27;;;4.97;;
19739;SDS011;10027;51.066;13.768;2023-11-21T13:41:19;7.70;;;4.70;;
19739;SDS011;10027;51.066;13.768;2023-11-21T13:43:46;9.33;;;4.67;;
19739;SDS011;10027;51.066;13.768;2023-11-21T13:46:18;10.43;;;4.77;;
19739;SDS011;10027;51.066;13.768;2023-11-21T13:48:49;7.23;;;4.30;;
19739;SDS011;10027;51.066;13.768;2023-11-21T13:51:23;9.27;;;4.60;;
19739;SDS011;10027;51.066;13.768;2023-11-21T13:54:03;8.80;;;4.57;;
19739;SDS011;10027;51.066;13.768;2023-11-21T13:56:36;9.13;;;5.00;;
19739;SDS011;10027;51.066;13.768;2023-11-21T13:59:03;12.53;;;4.67;;
19739;SDS011;10027;51.066;13.768;2023-11-21T14:01:43;10.03;;;4.70;;
19739;SDS011;10027;51.066;13.768;2023-11-21T14:04:19;6.90;;;4.23;;
19739;SDS011;10027;51.066;13.768;2023-11-21T14:06:59;7.83;;;3.93;;
19739;SDS011;10027;51.066;13.768;2023-11-21T14:09:37;8.13;;;4.27;;
19739;SDS011;10027;51.066;13.768;2023-11-21T14:12:10;10.47;;;4.30;;
19739;SDS011;10027;51.066;13.768;2023-11-21T14:14:40;10.10;;;4.00;;
19739;SDS011;10027;51.066;13.768;2023-11-21T14:17:07;8.20;;;4.40;;
19739;SDS011;10027;51.066;13.768;2023-11-21T14:19:36;7.27;;;4.20;;
19739;SDS011;10027;51.066;13.768;2023-11-21T14:22:07;6.53;;;3.50;;
19739;SDS011;10027;51.066;13.768;2023-11-21T14:24:36;8.73;;;4.20;;
19739;SDS011;10027;51.066;13.768;2023-11-21T14:27:03;7.47;;;4.37;;
19739;SDS011;10027;51.066;13.768;2023-11-21T14:29:31;9.00;;;4.40;;
19739;SDS011;10027;51.066;13.768;2023-11-21T14:32:04;9.80;;;4.37;;
19739;SDS011;10027;51.066;13.768;2023-11-21T14:34:32;8.50;;;3.90;;
19739;SDS011;10027;51.066;13.768;2023-11-21T14:36:59;7.17;;;4.53;;
19739;SDS011;10027;51.066;13.768;2023-11-21T14:39:29;8.83;;;4.10;;
19739;SDS011;10027;51.066;13.768;2023-11-21T14:41:56;8.43;;;4.60;;
19739;SDS011;10027;51.066;13.768;2023-11-21T14:44:25;8.43;;;4.37;;
19739;SDS011;10027;51.066;13.768;2023-11-21T14:46:53;7.93;;;4.37;;
19739;SDS011;10027;51.066;13.768;2023-11-21T14:49:24;7.17;;;3.60;;
19739;SDS011;10027;51.066;13.768;2023-11-21T14:51:54;7.03;;;3.77;;
19739;SDS011;10027;51.066;13.768;2023-11-21T14:54:43;4.90;;;3.27;;
19739;SDS011;10027;51.066;13.768;2023-11-21T14:57:18;6.70;;;3.43;;
19739;SDS011;10027;51.066;13.768;2023-11-21T14:59:47;6.73;;;3.70;;
19739;SDS011;10027;51.066;13.768;2023-11-21T15:02:18;4.87;;;3.13;;